Time;durP1;ratioP1;P1;durP2;ratioP2;P2;SDS_P1;SDS_P2;PMS_P1;PMS_P2;Temp;Humidity;BMP_temperature;BMP_pressure;BME280_temperature;BME280_humidity;BME280_pressure;Samples;Min_cycle;Max_cycle;Signal;HPM_P1;HPM_P2
2022/05/14 00:00:49;;;;;;;2.78;2.42;;;;;;;;;;5105893;28;20195;-68
2022/05/14 00:03:17;;;;;;;6.28;2.80;;;;;;;;;;5105512;28;20256;-68
2022/05/14 00:05:43;;;;;;;2.78;2.30;;;;;;;;;;5105477;28;20218;-68
2022/05/14 00:08:10;;;;;;;5.82;2.47;;;;;;;;;;5105224;28;20199;-68
2022/05/14 00:13:03;;;;;;;3.80;2.45;;;;;;;;;;5105377;28;20231;-68
2022/05/14 00:13:22;;;;;;;3.95;2.33;;;;;;;;;;5105172;28;20267;-68
2022/05/14 00:15:49;;;;;;;3.38;2.63;;;;;;;;;;5105222;28;20220;-69
2022/05/14 00:18:16;;;;;;;8.30;2.50;;;;;;;;;;5105406;28;20313;-68
2022/05/14 00:20:43;;;;;;;3.25;2.58;;;;;;;;;;5105259;28;20428;-68
2022/05/14 00:23:09;;;;;;;3.88;2.20;;;;;;;;;;5105134;28;20267;-68
2022/05/14 00:25:36;;;;;;;2.38;2.10;;;;;;;;;;5105205;28;20424;-68
2022/05/14 00:28:03;;;;;;;4.53;2.80;;;;;;;;;;5104917;28;20195;-68
2022/05/14 00:30:30;;;;;;;5.28;2.70;;;;;;;;;;5105029;28;20205;-68
2022/05/14 00:32:57;;;;;;;3.75;2.38;;;;;;;;;;5104928;28;20295;-68
2022/05/14 00:35:25;;;;;;;2.78;2.58;;;;;;;;;;5104770;28;20219;-68
2022/05/14 00:37:51;;;;;;;6.80;2.90;;;;;;;;;;5104264;28;20196;-68
2022/05/14 00:40:19;;;;;;;4.63;2.72;;;;;;;;;;5104913;28;20199;-68
2022/05/14 00:42:46;;;;;;;5.93;2.65;;;;;;;;;;5104865;28;20249;-68
2022/05/14 00:45:13;;;;;;;3.28;2.95;;;;;;;;;;5104736;28;20192;-68
2022/05/14 00:47:40;;;;;;;4.05;2.65;;;;;;;;;;5104461;28;20233;-68
2022/05/14 00:50:07;;;;;;;2.33;2.15;;;;;;;;;;5104536;28;20196;-68
2022/05/14 00:52:35;;;;;;;6.55;2.88;;;;;;;;;;5104645;28;20241;-68
2022/05/14 00:55:03;;;;;;;8.27;2.92;;;;;;;;;;5104591;28;20212;-68
2022/05/14 00:57:32;;;;;;;3.75;2.53;;;;;;;;;;5104367;28;20263;-68
2022/05/14 00:59:59;;;;;;;4.30;2.72;;;;;;;;;;5104590;28;20203;-68
2022/05/14 01:02:25;;;;;;;3.50;2.22;;;;;;;;;;5104153;28;20203;-68
2022/05/14 01:04:51;;;;;;;6.68;2.90;;;;;;;;;;5104441;28;20475;-68
2022/05/14 01:07:19;;;;;;;5.22;2.60;;;;;;;;;;5104374;28;20210;-68
2022/05/14 01:09:48;;;;;;;7.30;2.42;;;;;;;;;;5104308;28;20495;-68
2022/05/14 01:12:16;;;;;;;4.72;2.33;;;;;;;;;;5103885;28;20312;-68
2022/05/14 01:14:43;;;;;;;5.07;2.60;;;;;;;;;;5104035;28;20226;-68
2022/05/14 01:17:09;;;;;;;3.80;2.35;;;;;;;;;;5103959;28;20384;-68
2022/05/14 01:19:35;;;;;;;2.83;2.05;;;;;;;;;;5104087;28;20236;-68
2022/05/14 01:22:08;;;;;;;4.88;2.67;;;;;;;;;;5104164;28;20199;-68
2022/05/14 01:27:27;;;;;;;5.93;2.55;;;;;;;;;;5103801;28;20202;-68
2022/05/14 01:29:53;;;;;;;3.03;2.47;;;;;;;;;;5103997;28;20208;-68
2022/05/14 01:32:20;;;;;;;3.85;2.15;;;;;;;;;;5103804;28;20200;-68
2022/05/14 01:34:46;;;;;;;3.03;2.40;;;;;;;;;;5104227;28;20239;-68
2022/05/14 01:37:12;;;;;;;4.22;2.13;;;;;;;;;;5103302;28;20211;-68
2022/05/14 01:39:38;;;;;;;5.32;2.75;;;;;;;;;;5103995;28;20202;-68
2022/05/14 01:42:05;;;;;;;8.70;2.90;;;;;;;;;;5103669;28;20202;-68
2022/05/14 01:44:33;;;;;;;4.85;2.83;;;;;;;;;;5103634;28;20199;-68
2022/05/14 01:46:59;;;;;;;2.97;2.72;;;;;;;;;;5103333;28;20203;-68
2022/05/14 01:49:25;;;;;;;2.78;2.58;;;;;;;;;;5103007;28;20195;-68
2022/05/14 01:51:51;;;;;;;5.28;2.80;;;;;;;;;;5103170;28;20500;-68
2022/05/14 01:54:18;;;;;;;6.60;2.60;;;;;;;;;;5103706;28;20530;-68
2022/05/14 01:56:44;;;;;;;6.93;3.03;;;;;;;;;;5103025;28;20219;-68
2022/05/14 01:59:10;;;;;;;6.00;2.63;;;;;;;;;;5103457;28;20196;-68
2022/05/14 02:01:38;;;;;;;4.60;3.20;;;;;;;;;;5103365;28;20199;-68
2022/05/14 02:04:06;;;;;;;7.78;2.65;;;;;;;;;;5103066;28;20204;-68
2022/05/14 02:06:33;;;;;;;5.35;2.50;;;;;;;;;;5103039;28;20539;-68
2022/05/14 02:09:00;;;;;;;4.68;2.60;;;;;;;;;;5103199;28;20196;-67
2022/05/14 02:11:27;;;;;;;4.45;2.65;;;;;;;;;;5103172;28;20203;-68
2022/05/14 02:13:54;;;;;;;5.00;2.40;;;;;;;;;;5103053;28;20202;-67
2022/05/14 02:16:21;;;;;;;4.10;2.75;;;;;;;;;;5102623;28;20216;-67
2022/05/14 02:18:48;;;;;;;3.88;2.67;;;;;;;;;;5103267;28;20219;-67
2022/05/14 02:21:16;;;;;;;3.38;3.08;;;;;;;;;;5102996;28;20196;-67
2022/05/14 02:23:43;;;;;;;4.20;2.90;;;;;;;;;;5102971;28;20518;-67
2022/05/14 02:26:11;;;;;;;2.85;2.75;;;;;;;;;;5102847;28;20245;-68
2022/05/14 02:28:37;;;;;;;3.75;2.80;;;;;;;;;;5102663;28;20195;-68
2022/05/14 02:31:04;;;;;;;5.72;2.72;;;;;;;;;;5102601;28;20206;-68
2022/05/14 02:33:30;;;;;;;5.47;2.63;;;;;;;;;;5102894;28;20526;-67
2022/05/14 02:35:58;;;;;;;3.40;2.72;;;;;;;;;;5102695;28;20219;-67
2022/05/14 02:38:26;;;;;;;4.30;2.88;;;;;;;;;;5102754;28;20196;-67
2022/05/14 02:40:53;;;;;;;3.88;2.28;;;;;;;;;;5103016;28;20199;-67
2022/05/14 02:43:19;;;;;;;5.00;2.83;;;;;;;;;;5103093;28;20195;-67
2022/05/14 02:45:45;;;;;;;2.70;2.47;;;;;;;;;;5102439;28;20191;-67
2022/05/14 02:48:12;;;;;;;2.65;2.45;;;;;;;;;;5102505;28;20199;-68
2022/05/14 02:50:39;;;;;;;2.78;2.42;;;;;;;;;;5102470;28;20219;-68
2022/05/14 02:53:07;;;;;;;4.60;2.38;;;;;;;;;;5102515;28;20519;-68
2022/05/14 02:55:33;;;;;;;4.28;2.67;;;;;;;;;;5102435;28;20235;-68
2022/05/14 02:57:59;;;;;;;7.70;3.03;;;;;;;;;;5102377;28;20205;-68
2022/05/14 03:00:26;;;;;;;6.97;2.78;;;;;;;;;;5102219;28;20196;-68
2022/05/14 03:02:53;;;;;;;3.47;2.80;;;;;;;;;;5102136;28;20207;-68
2022/05/14 03:05:21;;;;;;;5.03;2.90;;;;;;;;;;5102125;28;20532;-68
2022/05/14 03:07:47;;;;;;;3.67;2.70;;;;;;;;;;5102091;28;20394;-68
2022/05/14 03:10:15;;;;;;;9.70;2.70;;;;;;;;;;5102190;28;20205;-68
2022/05/14 03:12:41;;;;;;;2.97;2.50;;;;;;;;;;5102048;28;20196;-68
2022/05/14 03:15:08;;;;;;;3.05;2.72;;;;;;;;;;5101940;28;20202;-68
2022/05/14 03:17:35;;;;;;;2.85;2.47;;;;;;;;;;5102094;28;20196;-68
2022/05/14 03:20:02;;;;;;;4.25;2.92;;;;;;;;;;5102054;28;20195;-68
2022/05/14 03:22:32;;;;;;;3.03;2.75;;;;;;;;;;5102373;28;20196;-68
2022/05/14 03:24:58;;;;;;;4.97;2.83;;;;;;;;;;5102134;28;20233;-68
2022/05/14 03:27:26;;;;;;;4.10;2.75;;;;;;;;;;5101820;28;20525;-68
2022/05/14 03:29:52;;;;;;;2.70;2.50;;;;;;;;;;5102248;28;20203;-67
2022/05/14 03:32:19;;;;;;;3.35;3.05;;;;;;;;;;5101946;28;20196;-67
2022/05/14 03:34:45;;;;;;;3.33;2.90;;;;;;;;;;5102094;28;20200;-67
2022/05/14 03:37:11;;;;;;;5.30;2.92;;;;;;;;;;5101879;28;20449;-67
2022/05/14 03:39:38;;;;;;;5.03;2.88;;;;;;;;;;5102020;28;20200;-67
2022/05/14 03:42:04;;;;;;;4.25;3.25;;;;;;;;;;5101987;28;20206;-67
2022/05/14 03:44:32;;;;;;;5.40;2.80;;;;;;;;;;5102098;28;20211;-67
2022/05/14 03:46:58;;;;;;;5.53;3.20;;;;;;;;;;5101641;28;20196;-68
2022/05/14 03:49:25;;;;;;;4.40;3.00;;;;;;;;;;5102156;28;20196;-68
2022/05/14 03:51:52;;;;;;;5.13;2.90;;;;;;;;;;5101884;28;20196;-67
2022/05/14 03:54:18;;;;;;;5.03;2.90;;;;;;;;;;5101964;28;20549;-67
2022/05/14 03:56:44;;;;;;;5.50;2.85;;;;;;;;;;5101495;28;20215;-67
2022/05/14 03:59:12;;;;;;;3.83;2.88;;;;;;;;;;5102010;28;20527;-67
2022/05/14 04:01:40;;;;;;;4.70;2.72;;;;;;;;;;5101765;28;20213;-67
2022/05/14 04:04:06;;;;;;;3.72;3.08;;;;;;;;;;5101859;28;20507;-67
2022/05/14 04:06:32;;;;;;;3.60;3.30;;;;;;;;;;5101529;28;20282;-68
2022/05/14 04:08:59;;;;;;;3.10;2.90;;;;;;;;;;5101636;28;20196;-68
2022/05/14 04:11:26;;;;;;;3.95;2.72;;;;;;;;;;5101986;28;20364;-68
2022/05/14 04:13:52;;;;;;;3.92;2.83;;;;;;;;;;5103381;28;20196;-67
2022/05/14 04:16:18;;;;;;;7.05;3.00;;;;;;;;;;5105211;28;20550;-67
2022/05/14 04:18:46;;;;;;;7.65;4.00;;;;;;;;;;5105366;28;20395;-67
2022/05/14 04:21:12;;;;;;;3.20;2.88;;;;;;;;;;5105272;28;20241;-68
2022/05/14 04:23:39;;;;;;;3.90;2.90;;;;;;;;;;5105150;28;20499;-68
2022/05/14 04:26:05;;;;;;;3.45;2.83;;;;;;;;;;5105189;28;20196;-68
2022/05/14 04:28:31;;;;;;;3.67;3.17;;;;;;;;;;5105211;28;20485;-68
2022/05/14 04:30:58;;;;;;;5.35;3.05;;;;;;;;;;5105144;28;20199;-68
2022/05/14 04:33:25;;;;;;;4.72;2.90;;;;;;;;;;5104960;28;20195;-68
2022/05/14 04:35:52;;;;;;;4.07;3.15;;;;;;;;;;5104903;28;20223;-68
2022/05/14 04:38:19;;;;;;;4.43;2.85;;;;;;;;;;5104608;28;20196;-68
2022/05/14 04:40:45;;;;;;;4.03;2.80;;;;;;;;;;5105029;28;20518;-68
2022/05/14 04:43:12;;;;;;;4.38;3.15;;;;;;;;;;5105050;28;20196;-68
2022/05/14 04:45:39;;;;;;;6.55;3.08;;;;;;;;;;5104753;28;20196;-68
2022/05/14 04:48:06;;;;;;;6.85;2.90;;;;;;;;;;5104584;28;20195;-68
2022/05/14 04:50:32;;;;;;;8.07;3.38;;;;;;;;;;5104759;28;20399;-68
2022/05/14 04:53:00;;;;;;;6.90;3.60;;;;;;;;;;5104536;28;20279;-68
2022/05/14 04:55:26;;;;;;;5.03;3.55;;;;;;;;;;5104672;28;20203;-68
2022/05/14 04:57:52;;;;;;;4.35;3.30;;;;;;;;;;5104565;28;20503;-68
2022/05/14 05:00:19;;;;;;;4.38;3.63;;;;;;;;;;5104589;28;20202;-68
2022/05/14 05:05:31;;;;;;;9.60;3.53;;;;;;;;;;5104268;28;20231;-68
2022/05/14 05:07:57;;;;;;;3.22;3.03;;;;;;;;;;5104364;28;20200;-68
2022/05/14 05:10:25;;;;;;;5.20;3.45;;;;;;;;;;5104519;28;20231;-68
2022/05/14 05:12:51;;;;;;;6.35;3.63;;;;;;;;;;5104338;28;20203;-68
2022/05/14 05:15:18;;;;;;;5.85;3.50;;;;;;;;;;5104220;28;20203;-68
2022/05/14 05:17:44;;;;;;;6.63;3.60;;;;;;;;;;5103858;28;20538;-68
2022/05/14 05:20:10;;;;;;;5.25;3.35;;;;;;;;;;5104442;28;20211;-68
2022/05/14 05:22:37;;;;;;;5.07;3.33;;;;;;;;;;5104386;28;20522;-68
2022/05/14 05:25:04;;;;;;;3.72;3.50;;;;;;;;;;5103929;28;20196;-68
2022/05/14 05:27:32;;;;;;;7.32;3.70;;;;;;;;;;5103698;28;20191;-68
2022/05/14 05:29:58;;;;;;;4.45;4.10;;;;;;;;;;5103867;28;20218;-68
2022/05/14 05:32:25;;;;;;;10.38;6.30;;;;;;;;;;5103794;28;20421;-68
2022/05/14 05:34:51;;;;;;;10.05;6.40;;;;;;;;;;5103986;28;20517;-68
2022/05/14 05:37:17;;;;;;;7.97;5.13;;;;;;;;;;5103630;28;20303;-68
2022/05/14 05:39:43;;;;;;;4.35;3.97;;;;;;;;;;5103780;28;20202;-68
2022/05/14 05:42:10;;;;;;;3.72;3.50;;;;;;;;;;5103883;28;20502;-68
2022/05/14 05:44:37;;;;;;;5.40;3.70;;;;;;;;;;5103659;28;20202;-68
2022/05/14 05:47:06;;;;;;;4.88;3.85;;;;;;;;;;5103261;28;20200;-68
2022/05/14 05:49:32;;;;;;;4.32;3.85;;;;;;;;;;5103823;28;20268;-68
2022/05/14 05:51:58;;;;;;;5.32;4.00;;;;;;;;;;5103566;28;20195;-68
2022/05/14 05:57:09;;;;;;;4.43;3.53;;;;;;;;;;5103086;28;20218;-68
2022/05/14 05:59:35;;;;;;;4.07;3.65;;;;;;;;;;5103805;28;20210;-68
2022/05/14 06:02:03;;;;;;;5.55;5.00;;;;;;;;;;5103284;28;20267;-68
2022/05/14 06:04:29;;;;;;;5.85;4.20;;;;;;;;;;5103629;28;20204;-68
2022/05/14 06:06:55;;;;;;;4.95;3.95;;;;;;;;;;5102904;28;20215;-68
2022/05/14 06:09:24;;;;;;;5.20;4.00;;;;;;;;;;5103350;28;20196;-68
2022/05/14 06:11:50;;;;;;;7.18;4.43;;;;;;;;;;5103144;28;20196;-70
2022/05/14 06:14:17;;;;;;;3.97;3.45;;;;;;;;;;5103055;28;20406;-70
2022/05/14 06:16:43;;;;;;;5.07;4.15;;;;;;;;;;5102966;28;20219;-70
2022/05/14 06:19:11;;;;;;;4.20;3.80;;;;;;;;;;5103097;28;20491;-70
2022/05/14 06:21:38;;;;;;;3.90;3.60;;;;;;;;;;5102945;28;20199;-70
2022/05/14 06:24:04;;;;;;;9.90;4.07;;;;;;;;;;5103037;28;20195;-70
2022/05/14 06:26:31;;;;;;;6.53;3.78;;;;;;;;;;5102643;28;20196;-70
2022/05/14 06:28:59;;;;;;;6.00;4.03;;;;;;;;;;5103065;28;20191;-70
2022/05/14 06:31:25;;;;;;;8.15;3.75;;;;;;;;;;5103016;28;20257;-70
2022/05/14 06:33:52;;;;;;;6.22;3.75;;;;;;;;;;5102771;28;20195;-70
2022/05/14 06:36:20;;;;;;;9.00;4.22;;;;;;;;;;5102125;28;20418;-70
2022/05/14 06:38:46;;;;;;;7.85;4.72;;;;;;;;;;5102784;28;20200;-70
2022/05/14 06:41:14;;;;;;;4.82;4.30;;;;;;;;;;5102649;28;20195;-70
2022/05/14 06:43:41;;;;;;;6.25;3.75;;;;;;;;;;5102779;28;20196;-70
2022/05/14 06:46:07;;;;;;;5.65;3.90;;;;;;;;;;5102677;28;20219;-70
2022/05/14 06:48:34;;;;;;;4.00;3.70;;;;;;;;;;5102542;28;20196;-70
2022/05/14 06:51:02;;;;;;;6.70;4.18;;;;;;;;;;5103202;28;20210;-70
2022/05/14 06:53:30;;;;;;;6.80;4.85;;;;;;;;;;5106033;28;20195;-70
2022/05/14 06:55:57;;;;;;;5.88;4.30;;;;;;;;;;5103118;28;20199;-70
2022/05/14 06:58:25;;;;;;;6.85;4.45;;;;;;;;;;5102432;28;20228;-70
2022/05/14 07:00:52;;;;;;;7.57;6.53;;;;;;;;;;5102630;28;20200;-70
2022/05/14 07:11:52;;;;;;;5.78;3.70;;;;;;;;;;5101676;28;20538;-70
2022/05/14 07:14:19;;;;;;;3.47;3.22;;;;;;;;;;5102504;28;20234;-70
2022/05/14 07:16:45;;;;;;;4.28;3.65;;;;;;;;;;5102114;28;20512;-70
2022/05/14 07:19:12;;;;;;;3.90;3.60;;;;;;;;;;5102264;28;20195;-70
2022/05/14 07:21:39;;;;;;;5.70;3.80;;;;;;;;;;5102328;28;20195;-70
2022/05/14 07:24:07;;;;;;;5.50;3.60;;;;;;;;;;5102217;28;20233;-68
2022/05/14 07:26:35;;;;;;;6.28;3.30;;;;;;;;;;5102096;28;20198;-68
2022/05/14 07:29:06;;;;;;;8.88;3.58;;;;;;;;;;5102246;28;20395;-68
2022/05/14 07:31:32;;;;;;;6.22;3.65;;;;;;;;;;5102248;28;20517;-68
2022/05/14 07:33:58;;;;;;;7.38;3.38;;;;;;;;;;5102201;28;20608;-68
2022/05/14 07:36:26;;;;;;;3.25;3.00;;;;;;;;;;5101775;28;20199;-68
2022/05/14 07:38:53;;;;;;;5.25;2.90;;;;;;;;;;5102015;28;20208;-69
2022/05/14 07:41:19;;;;;;;4.60;3.05;;;;;;;;;;5102080;28;20234;-69
2022/05/14 07:43:48;;;;;;;5.88;3.50;;;;;;;;;;5102226;28;20199;-69
2022/05/14 07:46:19;;;;;;;3.05;2.75;;;;;;;;;;5101908;28;20195;-68
2022/05/14 07:48:47;;;;;;;3.25;3.00;;;;;;;;;;5103789;28;20233;-68
2022/05/14 07:51:13;;;;;;;5.50;3.20;;;;;;;;;;5106243;28;20515;-68
2022/05/14 07:53:40;;;;;;;9.27;3.17;;;;;;;;;;5105765;28;20257;-68
2022/05/14 07:56:08;;;;;;;3.30;2.53;;;;;;;;;;5105910;28;20222;-68
2022/05/14 07:58:35;;;;;;;6.10;2.92;;;;;;;;;;5106053;28;20242;-68
2022/05/14 08:01:01;;;;;;;3.25;2.28;;;;;;;;;;5105676;28;20200;-68
2022/05/14 08:03:29;;;;;;;4.30;2.28;;;;;;;;;;5093358;28;20220;-68
2022/05/14 08:05:55;;;;;;;3.42;2.85;;;;;;;;;;5102138;28;20437;-68
2022/05/14 08:08:21;;;;;;;3.60;2.28;;;;;;;;;;5102735;28;20328;-68
2022/05/14 08:10:49;;;;;;;3.17;2.40;;;;;;;;;;5102385;28;20226;-68
2022/05/14 08:13:16;;;;;;;2.10;1.63;;;;;;;;;;5102474;28;20207;-68
2022/05/14 08:15:43;;;;;;;1.95;1.65;;;;;;;;;;5102952;28;20435;-68
2022/05/14 08:18:09;;;;;;;4.88;1.73;;;;;;;;;;5102314;28;20230;-68
2022/05/14 08:20:39;;;;;;;6.50;1.75;;;;;;;;;;5102330;28;20204;-68
2022/05/14 08:25:49;;;;;;;2.55;1.40;;;;;;;;;;5105180;28;20206;-68
2022/05/14 08:28:16;;;;;;;1.40;0.88;;;;;;;;;;5105204;28;20195;-68
2022/05/14 08:30:42;;;;;;;5.03;1.15;;;;;;;;;;5105020;28;20208;-68
2022/05/14 08:33:08;;;;;;;2.58;0.95;;;;;;;;;;5104953;28;20212;-68
2022/05/14 08:35:35;;;;;;;2.25;0.82;;;;;;;;;;5105244;28;20495;-68
2022/05/14 08:38:03;;;;;;;4.70;1.00;;;;;;;;;;5104767;28;20230;-68
2022/05/14 08:40:30;;;;;;;4.72;1.08;;;;;;;;;;5105029;28;20196;-68
2022/05/14 08:42:58;;;;;;;3.22;0.80;;;;;;;;;;5104848;28;20199;-68
2022/05/14 08:45:26;;;;;;;1.48;1.00;;;;;;;;;;5104836;28;20208;-68
2022/05/14 08:47:56;;;;;;;2.83;1.08;;;;;;;;;;5104739;28;20204;-68
2022/05/14 08:50:24;;;;;;;5.88;1.17;;;;;;;;;;5104827;28;20507;-68
2022/05/14 08:52:51;;;;;;;4.03;0.95;;;;;;;;;;5105085;28;20206;-68
2022/05/14 08:55:19;;;;;;;2.42;0.93;;;;;;;;;;5104299;28;20223;-68
2022/05/14 08:57:49;;;;;;;3.30;1.13;;;;;;;;;;5103762;28;20572;-68
2022/05/14 09:00:17;;;;;;;2.58;0.90;;;;;;;;;;5103819;28;20204;-68
2022/05/14 09:02:44;;;;;;;3.97;1.10;;;;;;;;;;5103836;28;20211;-68
2022/05/14 09:05:12;;;;;;;5.47;1.08;;;;;;;;;;5103976;28;20231;-68
2022/05/14 09:07:38;;;;;;;3.35;1.15;;;;;;;;;;5103797;28;20291;-68
2022/05/14 09:10:06;;;;;;;2.00;1.23;;;;;;;;;;5104025;28;20242;-68
2022/05/14 09:12:35;;;;;;;2.72;1.27;;;;;;;;;;5103931;28;20196;-68
2022/05/14 09:15:02;;;;;;;3.78;1.45;;;;;;;;;;5104033;28;20196;-68
2022/05/14 09:17:29;;;;;;;3.15;0.80;;;;;;;;;;5103578;28;20519;-68
2022/05/14 09:19:56;;;;;;;3.85;1.23;;;;;;;;;;5103635;28;20199;-68
2022/05/14 09:22:37;;;;;;;2.97;1.10;;;;;;;;;;5103693;28;20240;-68
2022/05/14 09:25:14;;;;;;;3.05;0.95;;;;;;;;;;5103287;28;20196;-68
2022/05/14 09:27:44;;;;;;;4.88;1.40;;;;;;;;;;5103476;28;20521;-68
2022/05/14 09:30:13;;;;;;;4.30;1.50;;;;;;;;;;5103667;28;20502;-68
2022/05/14 09:32:41;;;;;;;1.20;1.08;;;;;;;;;;5103408;28;20210;-68
2022/05/14 09:35:11;;;;;;;3.50;1.40;;;;;;;;;;5103260;28;20203;-68
2022/05/14 09:37:38;;;;;;;7.80;1.95;;;;;;;;;;5102767;28;20234;-68
2022/05/14 09:40:09;;;;;;;2.88;1.10;;;;;;;;;;5103378;28;20196;-68
2022/05/14 09:42:38;;;;;;;6.13;2.20;;;;;;;;;;5103275;28;20219;-68
2022/05/14 09:45:17;;;;;;;7.40;1.65;;;;;;;;;;5103245;28;20196;-68
2022/05/14 09:47:44;;;;;;;3.33;1.30;;;;;;;;;;5103408;28;20489;-68
2022/05/14 09:50:17;;;;;;;3.75;1.23;;;;;;;;;;5102930;28;20412;-68
2022/05/14 09:52:54;;;;;;;3.90;1.35;;;;;;;;;;5103262;28;20537;-68
2022/05/14 09:55:20;;;;;;;4.25;1.67;;;;;;;;;;5102903;28;20503;-68
2022/05/14 09:57:48;;;;;;;5.20;2.10;;;;;;;;;;5102407;28;20219;-68
2022/05/14 10:00:18;;;;;;;2.88;1.02;;;;;;;;;;5102757;28;20202;-68
2022/05/14 10:02:59;;;;;;;2.40;1.45;;;;;;;;;;5102728;28;20203;-68
2022/05/14 10:05:40;;;;;;;4.93;1.42;;;;;;;;;;5102818;28;20216;-68
2022/05/14 10:08:12;;;;;;;4.47;1.80;;;;;;;;;;5102641;28;20383;-68
2022/05/14 10:10:43;;;;;;;1.40;1.15;;;;;;;;;;5102010;28;20191;-68
2022/05/14 10:13:14;;;;;;;4.40;1.40;;;;;;;;;;5102483;28;20195;-68
2022/05/14 10:15:44;;;;;;;4.43;1.35;;;;;;;;;;5103013;28;20499;-68
2022/05/14 10:18:17;;;;;;;2.40;1.10;;;;;;;;;;5102245;28;20284;-68
2022/05/14 10:20:49;;;;;;;5.28;1.40;;;;;;;;;;5102576;28;20245;-68
2022/05/14 10:28:57;;;;;;;3.72;1.48;;;;;;;;;;5102563;28;20399;-68
2022/05/14 10:31:29;;;;;;;5.75;1.40;;;;;;;;;;5102565;28;20202;-68
2022/05/14 10:33:57;;;;;;;5.10;1.30;;;;;;;;;;5102277;28;20201;-68
2022/05/14 10:36:27;;;;;;;2.55;1.27;;;;;;;;;;5102150;28;20204;-68
2022/05/14 10:38:57;;;;;;;2.85;1.27;;;;;;;;;;5102240;28;20577;-68
2022/05/14 10:41:27;;;;;;;3.05;1.00;;;;;;;;;;5102318;28;20545;-68
2022/05/14 10:43:57;;;;;;;4.88;1.40;;;;;;;;;;5102755;28;20529;-68
2022/05/14 10:46:27;;;;;;;3.30;1.42;;;;;;;;;;5101830;28;20196;-68
2022/05/14 10:48:55;;;;;;;1.73;1.33;;;;;;;;;;5102426;28;20418;-68
2022/05/14 10:51:24;;;;;;;2.72;1.67;;;;;;;;;;5102042;28;20196;-68
2022/05/14 10:53:50;;;;;;;4.70;1.38;;;;;;;;;;5102157;28;20266;-68
2022/05/14 10:56:21;;;;;;;1.90;0.98;;;;;;;;;;5101854;28;20429;-68
2022/05/14 10:58:57;;;;;;;2.38;1.33;;;;;;;;;;5101786;28;20222;-68
2022/05/14 11:01:27;;;;;;;5.18;1.25;;;;;;;;;;5102086;28;20194;-68
2022/05/14 11:03:55;;;;;;;6.10;1.60;;;;;;;;;;5101815;28;20410;-68
2022/05/14 11:06:27;;;;;;;2.83;1.55;;;;;;;;;;5101861;28;20215;-68
2022/05/14 11:08:54;;;;;;;3.17;1.20;;;;;;;;;;5101896;28;20499;-68
2022/05/14 11:11:22;;;;;;;2.00;1.45;;;;;;;;;;5101804;28;20233;-68
2022/05/14 11:13:56;;;;;;;4.55;1.42;;;;;;;;;;5102009;28;20199;-68
2022/05/14 11:16:22;;;;;;;3.08;1.30;;;;;;;;;;5101639;28;20195;-68
2022/05/14 11:18:51;;;;;;;3.90;1.58;;;;;;;;;;5101608;28;20215;-69
2022/05/14 11:21:19;;;;;;;3.50;1.52;;;;;;;;;;5101850;28;20206;-69
2022/05/14 11:23:54;;;;;;;5.85;1.60;;;;;;;;;;5105114;28;20266;-69
2022/05/14 11:26:21;;;;;;;3.65;1.50;;;;;;;;;;5099917;28;20261;-69
2022/05/14 11:28:55;;;;;;;4.03;1.40;;;;;;;;;;5099748;28;20191;-69
2022/05/14 11:31:24;;;;;;;2.70;1.40;;;;;;;;;;5103058;28;20207;-69
2022/05/14 11:33:52;;;;;;;3.53;1.55;;;;;;;;;;5102705;28;20211;-68
2022/05/14 11:36:21;;;;;;;2.88;1.30;;;;;;;;;;5102440;28;20211;-69
2022/05/14 11:38:52;;;;;;;2.90;1.60;;;;;;;;;;5102860;28;20395;-69
2022/05/14 11:41:27;;;;;;;10.25;4.88;;;;;;;;;;5102940;28;20510;-68
2022/05/14 11:43:54;;;;;;;6.63;1.73;;;;;;;;;;5102873;28;20213;-68
2022/05/14 11:46:26;;;;;;;2.38;1.30;;;;;;;;;;5102284;28;20199;-68
2022/05/14 11:48:54;;;;;;;6.63;1.65;;;;;;;;;;5102525;28;20205;-69
2022/05/14 11:51:28;;;;;;;1.95;1.45;;;;;;;;;;5102913;28;20439;-68
2022/05/14 11:53:56;;;;;;;1.77;1.50;;;;;;;;;;5102783;28;20209;-69
2022/05/14 11:56:26;;;;;;;4.63;1.48;;;;;;;;;;5102128;28;20207;-68
2022/05/14 11:58:56;;;;;;;4.85;1.33;;;;;;;;;;5102468;28;20223;-69
2022/05/14 12:01:24;;;;;;;2.60;1.55;;;;;;;;;;5102225;28;20726;-69
2022/05/14 12:03:50;;;;;;;5.88;1.48;;;;;;;;;;5102236;28;20213;-69
2022/05/14 12:06:31;;;;;;;5.57;1.70;;;;;;;;;;5103104;28;20237;-70
2022/05/14 12:09:03;;;;;;;5.15;1.58;;;;;;;;;;5105218;28;20431;-70
2022/05/14 12:11:33;;;;;;;6.30;1.50;;;;;;;;;;5105047;28;20234;-69
2022/05/14 12:14:04;;;;;;;2.97;1.50;;;;;;;;;;5104984;28;20203;-69
2022/05/14 12:16:31;;;;;;;3.03;1.42;;;;;;;;;;5105069;28;20202;-69
2022/05/14 12:18:58;;;;;;;1.40;1.30;;;;;;;;;;5104877;28;20215;-69
2022/05/14 12:21:25;;;;;;;7.97;1.48;;;;;;;;;;5105037;28;20241;-69
2022/05/14 12:23:52;;;;;;;4.03;1.65;;;;;;;;;;5105061;28;20210;-69
2022/05/14 12:26:19;;;;;;;2.15;1.40;;;;;;;;;;5104603;28;20241;-69
2022/05/14 12:28:47;;;;;;;3.03;1.23;;;;;;;;;;5105019;28;20503;-69
2022/05/14 12:33:58;;;;;;;2.17;1.20;;;;;;;;;;5104030;28;20251;-69
2022/05/14 12:36:27;;;;;;;4.75;1.50;;;;;;;;;;5104576;28;20202;-69
2022/05/14 12:38:54;;;;;;;4.13;1.45;;;;;;;;;;5104610;28;20222;-71
2022/05/14 12:41:22;;;;;;;3.70;1.40;;;;;;;;;;5104779;28;20495;-69
2022/05/14 12:43:49;;;;;;;6.25;1.55;;;;;;;;;;5104536;28;20240;-69
2022/05/14 12:46:15;;;;;;;3.42;1.08;;;;;;;;;;5104229;28;20203;-69
2022/05/14 12:48:43;;;;;;;4.13;1.33;;;;;;;;;;5104486;28;20191;-69
2022/05/14 12:51:09;;;;;;;5.57;1.30;;;;;;;;;;5104366;28;20195;-69
2022/05/14 12:53:38;;;;;;;3.33;1.20;;;;;;;;;;5104624;28;20204;-69
2022/05/14 12:56:05;;;;;;;3.83;1.20;;;;;;;;;;5104289;28;20503;-69
2022/05/14 12:58:32;;;;;;;2.75;1.17;;;;;;;;;;5104074;28;20261;-69
2022/05/14 13:00:58;;;;;;;2.28;1.05;;;;;;;;;;5104143;28;20503;-69
2022/05/14 13:03:27;;;;;;;6.43;1.10;;;;;;;;;;5104244;28;20398;-69
2022/05/14 13:05:55;;;;;;;2.03;0.90;;;;;;;;;;5103793;28;20215;-69
2022/05/14 13:08:24;;;;;;;1.77;0.90;;;;;;;;;;5104102;28;20195;-69
2022/05/14 13:10:53;;;;;;;2.92;1.00;;;;;;;;;;5104039;28;20195;-69
2022/05/14 13:13:28;;;;;;;4.30;1.00;;;;;;;;;;5103824;28;20233;-69
2022/05/14 13:15:55;;;;;;;4.57;1.00;;;;;;;;;;5103919;28;20211;-69
2022/05/14 13:18:23;;;;;;;3.05;1.02;;;;;;;;;;5103400;28;20219;-70
2022/05/14 13:20:56;;;;;;;1.75;0.80;;;;;;;;;;5103851;28;20537;-70
2022/05/14 13:23:22;;;;;;;2.92;1.10;;;;;;;;;;5103827;28;20195;-70
2022/05/14 13:25:58;;;;;;;6.95;1.15;;;;;;;;;;5103576;28;20245;-70
2022/05/14 13:28:26;;;;;;;1.67;0.77;;;;;;;;;;5103553;28;20461;-70
2022/05/14 13:30:52;;;;;;;4.10;0.90;;;;;;;;;;5103955;28;20201;-70
2022/05/14 13:33:25;;;;;;;5.97;0.98;;;;;;;;;;5103411;28;20211;-70
2022/05/14 13:38:38;;;;;;;2.78;0.88;;;;;;;;;;5103269;28;20229;-70
2022/05/14 13:41:08;;;;;;;4.40;1.10;;;;;;;;;;5103311;28;20195;-70
2022/05/14 13:43:36;;;;;;;0.75;0.75;;;;;;;;;;5103104;28;20199;-70
2022/05/14 13:46:03;;;;;;;2.20;1.05;;;;;;;;;;5102204;28;20473;-70
2022/05/14 13:48:33;;;;;;;6.60;1.00;;;;;;;;;;5103173;28;20272;-70
2022/05/14 13:51:03;;;;;;;1.38;0.88;;;;;;;;;;5103208;28;20195;-70
2022/05/14 13:53:30;;;;;;;2.10;0.80;;;;;;;;;;5103144;28;20503;-69
2022/05/14 13:56:00;;;;;;;3.88;1.05;;;;;;;;;;5103215;28;20202;-69
2022/05/14 13:58:29;;;;;;;4.75;0.93;;;;;;;;;;5102665;28;20265;-69
2022/05/14 14:00:59;;;;;;;8.18;1.35;;;;;;;;;;5103041;28;20195;-69
2022/05/14 14:03:28;;;;;;;1.58;0.70;;;;;;;;;;5102758;28;20241;-70
2022/05/14 14:05:54;;;;;;;3.13;1.10;;;;;;;;;;5102603;28;20261;-70
2022/05/14 14:08:24;;;;;;;2.42;0.95;;;;;;;;;;5102406;28;20503;-70
2022/05/14 14:10:52;;;;;;;2.75;0.90;;;;;;;;;;5102855;28;20218;-69
2022/05/14 14:13:19;;;;;;;2.22;0.90;;;;;;;;;;5102736;28;20200;-69
2022/05/14 14:15:47;;;;;;;5.20;0.80;;;;;;;;;;5102684;28;20218;-69
2022/05/14 14:18:13;;;;;;;2.20;0.93;;;;;;;;;;5102342;28;20203;-69
2022/05/14 14:20:42;;;;;;;2.28;0.63;;;;;;;;;;5102543;28;20503;-69
2022/05/14 14:23:10;;;;;;;0.75;0.52;;;;;;;;;;5102360;28;20472;-69
2022/05/14 14:25:39;;;;;;;4.32;0.70;;;;;;;;;;5102337;28;20195;-69
2022/05/14 14:28:05;;;;;;;1.90;0.75;;;;;;;;;;5102199;28;20198;-69
2022/05/14 14:30:32;;;;;;;2.85;0.90;;;;;;;;;;5102225;28;20214;-69
2022/05/14 14:33:00;;;;;;;3.83;0.90;;;;;;;;;;5102281;28;20199;-69
2022/05/14 14:35:26;;;;;;;2.05;0.68;;;;;;;;;;5102295;28;20203;-69
2022/05/14 14:37:52;;;;;;;2.97;0.88;;;;;;;;;;5102269;28;20206;-69
2022/05/14 14:40:19;;;;;;;0.98;0.70;;;;;;;;;;5102234;28;20231;-69
2022/05/14 14:42:45;;;;;;;1.65;0.80;;;;;;;;;;5102156;28;20201;-69
2022/05/14 14:45:12;;;;;;;1.67;0.90;;;;;;;;;;5102146;28;20195;-69
2022/05/14 14:47:39;;;;;;;1.98;0.90;;;;;;;;;;5101870;28;20195;-70
2022/05/14 14:50:07;;;;;;;1.73;1.00;;;;;;;;;;5101980;28;20458;-69
2022/05/14 14:52:34;;;;;;;3.45;1.30;;;;;;;;;;5101994;28;20199;-69
2022/05/14 14:55:02;;;;;;;1.33;0.77;;;;;;;;;;5102093;28;20495;-69
2022/05/14 14:57:28;;;;;;;2.13;1.13;;;;;;;;;;5101269;28;20224;-69
2022/05/14 14:59:55;;;;;;;1.88;0.60;;;;;;;;;;5101812;28;20222;-69
2022/05/14 15:02:23;;;;;;;1.23;0.80;;;;;;;;;;5101744;28;20207;-70
2022/05/14 15:04:52;;;;;;;0.90;0.82;;;;;;;;;;5101750;28;20320;-70
2022/05/14 15:07:21;;;;;;;2.03;1.10;;;;;;;;;;5101945;28;20207;-69
2022/05/14 15:09:48;;;;;;;1.35;0.70;;;;;;;;;;5101953;28;20198;-69
2022/05/14 15:12:14;;;;;;;3.00;1.00;;;;;;;;;;5101862;28;20195;-69
2022/05/14 15:14:41;;;;;;;1.92;0.90;;;;;;;;;;5101834;28;20202;-70
2022/05/14 15:17:08;;;;;;;1.05;0.80;;;;;;;;;;5101950;28;20199;-70